Time;durP1;ratioP1;P1;durP2;ratioP2;P2;SDS_P1;SDS_P2;PMS_P1;PMS_P2;Temp;Humidity;BMP_temperature;BMP_pressure;BME280_temperature;BME280_humidity;BME280_pressure;Samples;Min_cycle;Max_cycle;Signal;HPM_P1;HPM_P2
2023/01/22 00:01:28;;;;;;;15.52;8.18;;;;;;;;;;5090045;28;20039;-81
2023/01/22 00:03:54;;;;;;;16.75;9.07;;;;;;;;;;5090662;28;20054;-82
2023/01/22 00:06:20;;;;;;;15.75;8.27;;;;;;;;;;5089206;28;20028;-82
2023/01/22 00:08:50;;;;;;;16.65;9.10;;;;;;;;;;5090672;28;20463;-82
2023/01/22 00:11:17;;;;;;;15.98;8.55;;;;;;;;;;5096314;28;20550;-82
2023/01/22 00:13:46;;;;;;;15.27;7.53;;;;;;;;;;5091075;28;20625;-82
2023/01/22 00:16:14;;;;;;;16.23;8.90;;;;;;;;;;5091071;28;20028;-82
2023/01/22 00:18:39;;;;;;;15.52;8.48;;;;;;;;;;5084773;28;20535;-82
2023/01/22 00:21:05;;;;;;;17.10;9.30;;;;;;;;;;5082846;28;20115;-82
2023/01/22 00:23:31;;;;;;;16.02;8.40;;;;;;;;;;5091920;28;20020;-82
2023/01/22 00:26:10;;;;;;;15.85;8.75;;;;;;;;;;5090665;28;20020;-82
2023/01/22 00:28:37;;;;;;;15.52;8.10;;;;;;;;;;5097114;28;20047;-82
2023/01/22 00:31:04;;;;;;;16.70;8.30;;;;;;;;;;5100757;28;20146;-82
2023/01/22 00:33:30;;;;;;;14.60;8.15;;;;;;;;;;5097659;28;20051;-82
2023/01/22 00:35:56;;;;;;;14.27;7.70;;;;;;;;;;5094368;28;20078;-82
2023/01/22 00:38:21;;;;;;;18.50;8.10;;;;;;;;;;5096247;28;20043;-82
2023/01/22 00:40:47;;;;;;;16.35;8.02;;;;;;;;;;5105379;28;20063;-82
2023/01/22 00:43:12;;;;;;;15.07;7.60;;;;;;;;;;5096451;28;20081;-82
2023/01/22 00:45:38;;;;;;;14.07;7.68;;;;;;;;;;5103361;28;20031;-82
2023/01/22 00:48:04;;;;;;;15.68;7.50;;;;;;;;;;5100341;28;20027;-81
2023/01/22 00:50:30;;;;;;;16.40;8.30;;;;;;;;;;5103306;28;20063;-82
2023/01/22 00:52:56;;;;;;;18.63;8.70;;;;;;;;;;5096627;28;20036;-82
2023/01/22 00:55:22;;;;;;;15.55;7.35;;;;;;;;;;5102592;28;20032;-82
2023/01/22 00:57:47;;;;;;;14.25;7.60;;;;;;;;;;5102096;28;20028;-82
2023/01/22 01:00:14;;;;;;;15.15;7.72;;;;;;;;;;5100070;28;20085;-81
2023/01/22 01:05:24;;;;;;;15.25;7.97;;;;;;;;;;5099842;28;20032;-82
2023/01/22 01:07:50;;;;;;;15.48;8.15;;;;;;;;;;5093859;28;21174;-82
2023/01/22 01:10:15;;;;;;;15.13;8.15;;;;;;;;;;5100736;28;20176;-82
2023/01/22 01:12:41;;;;;;;13.23;7.53;;;;;;;;;;5102280;27;20480;-82
2023/01/22 01:15:07;;;;;;;17.10;8.70;;;;;;;;;;5095167;28;20039;-82
2023/01/22 01:17:33;;;;;;;13.80;7.85;;;;;;;;;;5100280;28;20115;-82
2023/01/22 01:19:59;;;;;;;12.95;7.70;;;;;;;;;;5090051;28;20484;-82
2023/01/22 01:22:24;;;;;;;16.60;8.40;;;;;;;;;;5099161;28;20038;-82
2023/01/22 01:24:52;;;;;;;15.98;8.52;;;;;;;;;;5095931;28;20457;-82
2023/01/22 01:27:18;;;;;;;17.52;8.57;;;;;;;;;;5099280;28;20035;-82
2023/01/22 01:29:43;;;;;;;15.73;8.00;;;;;;;;;;5101415;28;20035;-82
2023/01/22 01:32:09;;;;;;;15.45;8.15;;;;;;;;;;5092374;28;20023;-82
2023/01/22 01:34:36;;;;;;;16.60;8.23;;;;;;;;;;5098697;28;20229;-82
2023/01/22 01:37:02;;;;;;;13.73;7.40;;;;;;;;;;5102096;28;20224;-82
2023/01/22 01:39:27;;;;;;;14.18;7.43;;;;;;;;;;5098804;28;20119;-82
2023/01/22 01:41:53;;;;;;;14.88;7.35;;;;;;;;;;5101756;28;20091;-82
2023/01/22 01:44:22;;;;;;;14.15;6.95;;;;;;;;;;5097089;28;20032;-82
2023/01/22 01:47:04;;;;;;;15.35;8.05;;;;;;;;;;5096694;28;20048;-82
2023/01/22 01:49:37;;;;;;;14.43;7.90;;;;;;;;;;5098466;28;20072;-82
2023/01/22 01:52:09;;;;;;;14.85;8.13;;;;;;;;;;5096340;28;20028;-82
2023/01/22 01:54:36;;;;;;;13.83;7.70;;;;;;;;;;5098711;28;20214;-81
2023/01/22 01:57:08;;;;;;;14.65;7.50;;;;;;;;;;5097402;28;20391;-81
2023/01/22 01:59:34;;;;;;;15.75;7.72;;;;;;;;;;5098726;28;20035;-82
2023/01/22 02:02:02;;;;;;;15.35;7.53;;;;;;;;;;5091126;28;20036;-82
2023/01/22 02:04:28;;;;;;;15.90;7.82;;;;;;;;;;5092313;28;20028;-82
2023/01/22 02:06:53;;;;;;;13.27;7.70;;;;;;;;;;5098918;28;20066;-82
2023/01/22 02:09:19;;;;;;;12.60;7.45;;;;;;;;;;5098621;28;20112;-82
2023/01/22 02:11:46;;;;;;;14.75;7.60;;;;;;;;;;5098702;27;20055;-82
2023/01/22 02:14:15;;;;;;;14.35;7.45;;;;;;;;;;5095834;28;20020;-82
2023/01/22 02:16:40;;;;;;;14.52;7.63;;;;;;;;;;5099365;28;20036;-81
2023/01/22 02:19:06;;;;;;;14.27;7.47;;;;;;;;;;5099207;28;20031;-82
2023/01/22 02:21:42;;;;;;;13.32;7.53;;;;;;;;;;5098180;28;20039;-83
2023/01/22 02:24:12;;;;;;;15.50;8.40;;;;;;;;;;5098152;27;20523;-81
2023/01/22 02:26:39;;;;;;;14.65;7.72;;;;;;;;;;5096471;28;20035;-82
2023/01/22 02:29:06;;;;;;;13.90;7.20;;;;;;;;;;5102816;28;20106;-82
2023/01/22 02:31:35;;;;;;;14.15;7.82;;;;;;;;;;5095949;28;20384;-81
2023/01/22 02:34:04;;;;;;;12.90;7.28;;;;;;;;;;5095437;28;20035;-82
2023/01/22 02:36:32;;;;;;;13.07;7.30;;;;;;;;;;5099596;28;20523;-82
2023/01/22 02:38:58;;;;;;;15.45;7.97;;;;;;;;;;5100498;28;20508;-82
2023/01/22 02:41:24;;;;;;;12.43;7.38;;;;;;;;;;5103617;28;20034;-81
2023/01/22 02:43:50;;;;;;;13.73;7.25;;;;;;;;;;5100749;28;20050;-81
2023/01/22 02:46:16;;;;;;;13.20;7.43;;;;;;;;;;5094729;28;20023;-81
2023/01/22 02:48:41;;;;;;;13.32;7.07;;;;;;;;;;5102592;28;20446;-82
2023/01/22 02:51:07;;;;;;;11.13;6.20;;;;;;;;;;5096742;28;20123;-81
2023/01/22 02:53:32;;;;;;;12.90;7.20;;;;;;;;;;5101191;28;20501;-81
2023/01/22 02:55:58;;;;;;;12.65;7.15;;;;;;;;;;5101417;28;20088;-81
2023/01/22 02:58:23;;;;;;;13.43;7.18;;;;;;;;;;5096493;28;20034;-81
2023/01/22 03:00:48;;;;;;;13.55;7.03;;;;;;;;;;5097955;28;20027;-82
2023/01/22 03:03:14;;;;;;;12.77;6.85;;;;;;;;;;5097501;28;20027;-82
2023/01/22 03:05:47;;;;;;;11.93;6.65;;;;;;;;;;5098397;28;20023;-81
2023/01/22 03:08:13;;;;;;;12.00;6.13;;;;;;;;;;5098753;28;20065;-82
2023/01/22 03:10:38;;;;;;;10.43;5.97;;;;;;;;;;5094771;27;20490;-82
2023/01/22 03:21:15;;;;;;;11.15;6.50;;;;;;;;;;5100584;28;20126;-81
2023/01/22 03:23:53;;;;;;;10.93;5.85;;;;;;;;;;5093451;28;20449;-81
2023/01/22 03:26:21;;;;;;;11.13;6.30;;;;;;;;;;5093339;28;20536;-82
2023/01/22 03:28:47;;;;;;;10.32;6.18;;;;;;;;;;5100512;28;20047;-81
2023/01/22 03:31:14;;;;;;;14.27;6.43;;;;;;;;;;5098134;28;20016;-81
2023/01/22 03:33:40;;;;;;;13.63;6.45;;;;;;;;;;5098245;28;20031;-82
2023/01/22 03:36:07;;;;;;;10.20;5.90;;;;;;;;;;5104144;28;20027;-81
2023/01/22 03:38:33;;;;;;;11.88;6.47;;;;;;;;;;5095091;28;20028;-81
2023/01/22 03:41:11;;;;;;;10.85;5.90;;;;;;;;;;5102028;28;20103;-82
2023/01/22 03:43:36;;;;;;;11.13;6.13;;;;;;;;;;5094369;28;20032;-81
2023/01/22 03:46:10;;;;;;;11.50;5.88;;;;;;;;;;5097267;28;20089;-81
2023/01/22 03:48:36;;;;;;;11.52;7.05;;;;;;;;;;5094651;28;20475;-81
2023/01/22 03:51:06;;;;;;;9.50;5.50;;;;;;;;;;5092260;28;20028;-82
2023/01/22 03:53:32;;;;;;;9.70;5.80;;;;;;;;;;5093919;28;20640;-82
2023/01/22 03:55:59;;;;;;;9.98;5.70;;;;;;;;;;5096856;28;20089;-81
2023/01/22 03:58:25;;;;;;;11.45;6.40;;;;;;;;;;5101285;28;20532;-81
2023/01/22 04:00:50;;;;;;;11.75;6.65;;;;;;;;;;5099200;28;20046;-82
2023/01/22 04:03:16;;;;;;;12.27;6.95;;;;;;;;;;5098611;28;20031;-81
2023/01/22 04:05:41;;;;;;;13.05;6.70;;;;;;;;;;5106073;28;20102;-81
2023/01/22 04:08:06;;;;;;;10.05;5.55;;;;;;;;;;5099428;28;20377;-82
2023/01/22 04:10:32;;;;;;;11.75;6.45;;;;;;;;;;5103519;27;20026;-81
2023/01/22 04:12:57;;;;;;;11.05;6.30;;;;;;;;;;5100281;28;20418;-82
2023/01/22 04:15:22;;;;;;;11.20;5.97;;;;;;;;;;5098501;28;20043;-82
2023/01/22 04:17:48;;;;;;;10.38;6.00;;;;;;;;;;5103526;28;20031;-82
2023/01/22 04:20:13;;;;;;;9.30;5.38;;;;;;;;;;5095936;28;20388;-81
2023/01/22 04:22:39;;;;;;;11.88;6.30;;;;;;;;;;5098994;28;20035;-81
2023/01/22 04:25:04;;;;;;;12.88;6.80;;;;;;;;;;5098227;28;20046;-81
2023/01/22 04:27:30;;;;;;;9.57;5.78;;;;;;;;;;5100643;28;20027;-81
2023/01/22 04:29:55;;;;;;;10.00;5.70;;;;;;;;;;5098993;28;20024;-81
2023/01/22 04:32:21;;;;;;;11.57;6.68;;;;;;;;;;5094937;28;20030;-82
2023/01/22 04:34:46;;;;;;;10.73;6.00;;;;;;;;;;5099337;28;20020;-81
2023/01/22 04:37:12;;;;;;;11.88;6.43;;;;;;;;;;5100577;28;20364;-82
2023/01/22 04:39:37;;;;;;;11.45;5.82;;;;;;;;;;5099490;28;20388;-81
2023/01/22 04:42:03;;;;;;;10.35;6.20;;;;;;;;;;5097258;28;20027;-81
2023/01/22 04:44:28;;;;;;;11.00;6.28;;;;;;;;;;5096867;28;20119;-81
2023/01/22 04:46:53;;;;;;;11.32;5.88;;;;;;;;;;5096827;28;20170;-82
2023/01/22 04:49:19;;;;;;;11.48;5.88;;;;;;;;;;5098956;28;20046;-81
2023/01/22 04:51:44;;;;;;;11.65;5.95;;;;;;;;;;5102999;28;20042;-81
2023/01/22 04:54:10;;;;;;;10.18;5.93;;;;;;;;;;5096852;28;20043;-81
2023/01/22 04:56:35;;;;;;;12.23;5.78;;;;;;;;;;5099980;28;20498;-81
2023/01/22 04:59:01;;;;;;;11.38;5.65;;;;;;;;;;5097271;28;20020;-81
2023/01/22 05:01:26;;;;;;;11.10;6.13;;;;;;;;;;5100932;28;20028;-81
2023/01/22 05:03:51;;;;;;;12.48;6.32;;;;;;;;;;5099924;28;20124;-81
2023/01/22 05:06:17;;;;;;;11.10;5.97;;;;;;;;;;5102372;28;20115;-81
2023/01/22 05:08:42;;;;;;;11.65;6.13;;;;;;;;;;5096108;28;20126;-81
2023/01/22 05:11:07;;;;;;;10.88;5.80;;;;;;;;;;5104717;27;20323;-81
2023/01/22 05:13:33;;;;;;;10.25;5.70;;;;;;;;;;5099528;28;20111;-82
2023/01/22 05:15:58;;;;;;;10.55;5.88;;;;;;;;;;5099063;28;20042;-81
2023/01/22 05:18:27;;;;;;;11.68;6.28;;;;;;;;;;5103631;28;20073;-81
2023/01/22 05:20:52;;;;;;;13.77;5.75;;;;;;;;;;5100010;28;20391;-81
2023/01/22 05:23:17;;;;;;;11.45;6.15;;;;;;;;;;5100399;28;20024;-81
2023/01/22 05:25:49;;;;;;;12.48;6.00;;;;;;;;;;5104023;28;20020;-82
2023/01/22 05:28:14;;;;;;;10.20;5.43;;;;;;;;;;5099930;28;20077;-82
2023/01/22 05:30:40;;;;;;;9.57;5.38;;;;;;;;;;5102433;28;20027;-81
2023/01/22 05:33:05;;;;;;;10.05;5.32;;;;;;;;;;5088107;28;20036;-81
2023/01/22 05:35:31;;;;;;;10.32;5.55;;;;;;;;;;5098449;28;20394;-81
2023/01/22 05:37:56;;;;;;;11.65;5.85;;;;;;;;;;5102218;28;20032;-81
2023/01/22 05:40:21;;;;;;;11.85;6.22;;;;;;;;;;5106753;28;20120;-82
2023/01/22 05:42:47;;;;;;;9.23;5.22;;;;;;;;;;5103794;28;20024;-82
2023/01/22 05:45:12;;;;;;;12.93;6.13;;;;;;;;;;5101294;28;20027;-81
2023/01/22 05:47:38;;;;;;;11.43;6.30;;;;;;;;;;5099010;28;20072;-82
2023/01/22 05:50:03;;;;;;;12.70;6.20;;;;;;;;;;5100505;28;20511;-81
2023/01/22 05:52:29;;;;;;;9.65;5.78;;;;;;;;;;5095380;28;20403;-81
2023/01/22 05:54:54;;;;;;;9.27;5.22;;;;;;;;;;5099206;28;20024;-81
2023/01/22 05:57:20;;;;;;;11.23;5.97;;;;;;;;;;5099026;28;20039;-81
2023/01/22 05:59:45;;;;;;;12.18;5.60;;;;;;;;;;5107304;28;20036;-81
2023/01/22 06:02:13;;;;;;;10.45;5.50;;;;;;;;;;5103577;28;20114;-81
2023/01/22 06:04:38;;;;;;;8.85;4.82;;;;;;;;;;5096984;28;20081;-81
2023/01/22 06:07:03;;;;;;;10.80;5.82;;;;;;;;;;5095391;28;20035;-81
2023/01/22 06:09:29;;;;;;;9.68;5.53;;;;;;;;;;5105188;28;20024;-81
2023/01/22 06:11:54;;;;;;;8.73;5.15;;;;;;;;;;5098946;27;20027;-82
2023/01/22 06:14:20;;;;;;;10.38;6.07;;;;;;;;;;5101778;28;20032;-81
2023/01/22 06:16:45;;;;;;;11.48;5.63;;;;;;;;;;5105362;28;20443;-81
2023/01/22 06:19:11;;;;;;;9.70;5.35;;;;;;;;;;5098022;28;20019;-81
2023/01/22 06:21:37;;;;;;;12.23;5.75;;;;;;;;;;5092501;28;20027;-81
2023/01/22 06:24:20;;;;;;;10.50;5.80;;;;;;;;;;5101115;28;20019;-81
2023/01/22 06:26:45;;;;;;;8.48;4.78;;;;;;;;;;5098361;28;20081;-81
2023/01/22 06:29:14;;;;;;;9.23;5.07;;;;;;;;;;5101506;28;20031;-81
2023/01/22 06:31:39;;;;;;;8.93;5.15;;;;;;;;;;5100293;28;20533;-82
2023/01/22 06:34:05;;;;;;;9.10;4.88;;;;;;;;;;5099164;28;20023;-81
2023/01/22 06:36:31;;;;;;;8.80;5.00;;;;;;;;;;5096073;28;20133;-81
2023/01/22 06:38:56;;;;;;;9.25;5.38;;;;;;;;;;5095855;28;20024;-81
2023/01/22 06:41:22;;;;;;;10.48;5.55;;;;;;;;;;5102493;28;20441;-82
2023/01/22 06:43:47;;;;;;;12.05;6.07;;;;;;;;;;5096034;28;20038;-81
2023/01/22 06:46:13;;;;;;;10.57;5.63;;;;;;;;;;5112047;27;20023;-81
2023/01/22 06:48:38;;;;;;;12.52;5.88;;;;;;;;;;5095578;28;20107;-82
2023/01/22 06:51:03;;;;;;;9.52;5.88;;;;;;;;;;5096056;28;20020;-81
2023/01/22 06:53:29;;;;;;;9.82;5.47;;;;;;;;;;5100470;28;20136;-81
2023/01/22 06:55:58;;;;;;;8.50;4.97;;;;;;;;;;5093895;28;20023;-82
2023/01/22 06:58:23;;;;;;;10.38;5.15;;;;;;;;;;5096627;28;20032;-82
2023/01/22 07:00:48;;;;;;;9.88;5.50;;;;;;;;;;5097820;28;20504;-82
2023/01/22 07:03:14;;;;;;;9.07;5.05;;;;;;;;;;5101910;28;20023;-82
2023/01/22 07:05:40;;;;;;;10.52;5.80;;;;;;;;;;5100217;28;20031;-81
2023/01/22 07:08:05;;;;;;;9.75;5.22;;;;;;;;;;5098471;28;20115;-81
2023/01/22 07:10:31;;;;;;;9.52;5.03;;;;;;;;;;5099604;28;20024;-82
2023/01/22 07:13:00;;;;;;;8.35;4.88;;;;;;;;;;5102281;28;20085;-82
2023/01/22 07:15:26;;;;;;;10.07;5.65;;;;;;;;;;5096956;27;20032;-81
2023/01/22 07:17:52;;;;;;;10.23;5.32;;;;;;;;;;5094101;28;20031;-82
2023/01/22 07:20:19;;;;;;;9.32;5.15;;;;;;;;;;5093460;28;20031;-81
2023/01/22 07:22:44;;;;;;;9.38;4.72;;;;;;;;;;5097785;28;20035;-82
2023/01/22 07:25:10;;;;;;;10.48;5.00;;;;;;;;;;5098380;28;20031;-82
2023/01/22 07:27:37;;;;;;;8.85;4.38;;;;;;;;;;5091193;28;20118;-81
2023/01/22 07:30:03;;;;;;;11.02;5.15;;;;;;;;;;5099752;28;20031;-82
2023/01/22 07:32:29;;;;;;;9.25;4.40;;;;;;;;;;5100086;28;20195;-82
2023/01/22 07:34:54;;;;;;;8.65;5.22;;;;;;;;;;5094264;28;20020;-81
2023/01/22 07:37:19;;;;;;;8.55;4.68;;;;;;;;;;5095684;28;20532;-82
2023/01/22 07:39:45;;;;;;;8.65;4.45;;;;;;;;;;5095792;28;20059;-81
2023/01/22 07:42:11;;;;;;;8.57;4.10;;;;;;;;;;5096789;28;20027;-82
2023/01/22 07:44:39;;;;;;;8.48;4.57;;;;;;;;;;5098941;28;20051;-82
2023/01/22 07:47:04;;;;;;;8.43;4.63;;;;;;;;;;5094034;28;20054;-82
2023/01/22 07:49:30;;;;;;;9.73;4.50;;;;;;;;;;5101008;28;20059;-82
2023/01/22 07:51:55;;;;;;;13.43;5.63;;;;;;;;;;5099623;28;20495;-82
2023/01/22 07:54:21;;;;;;;10.57;5.03;;;;;;;;;;5103190;28;20023;-81
2023/01/22 07:56:46;;;;;;;9.25;4.90;;;;;;;;;;5105130;28;20023;-81
2023/01/22 07:59:11;;;;;;;6.85;3.88;;;;;;;;;;5097032;28;20024;-81
2023/01/22 08:01:37;;;;;;;8.65;4.15;;;;;;;;;;5090973;28;20024;-82
2023/01/22 08:04:02;;;;;;;8.80;4.55;;;;;;;;;;5097117;28;20046;-81
2023/01/22 08:06:28;;;;;;;11.38;5.65;;;;;;;;;;5093004;28;20120;-82
2023/01/22 08:08:53;;;;;;;9.20;4.63;;;;;;;;;;5094946;28;20111;-82
2023/01/22 08:11:18;;;;;;;9.05;5.13;;;;;;;;;;5098979;28;20028;-81
2023/01/22 08:13:44;;;;;;;8.43;4.47;;;;;;;;;;5096708;28;20462;-82
2023/01/22 08:16:09;;;;;;;10.18;4.90;;;;;;;;;;5093216;28;20027;-82
2023/01/22 08:18:35;;;;;;;8.52;4.68;;;;;;;;;;5098251;28;20035;-82
2023/01/22 08:21:01;;;;;;;9.43;4.20;;;;;;;;;;5096379;28;20622;-82
2023/01/22 08:23:27;;;;;;;7.70;4.53;;;;;;;;;;5093657;28;20106;-82
2023/01/22 08:25:52;;;;;;;8.98;4.57;;;;;;;;;;5098087;28;20379;-82
2023/01/22 08:28:18;;;;;;;8.77;4.50;;;;;;;;;;5101589;28;20428;-82
2023/01/22 08:30:43;;;;;;;9.07;4.68;;;;;;;;;;5094101;28;20016;-82
2023/01/22 08:33:09;;;;;;;8.93;4.60;;;;;;;;;;5105421;28;20123;-82
2023/01/22 08:35:37;;;;;;;9.73;4.93;;;;;;;;;;5097924;28;20097;-82
2023/01/22 08:38:03;;;;;;;10.02;4.32;;;;;;;;;;5077999;28;20712;-82
2023/01/22 08:40:28;;;;;;;10.50;5.35;;;;;;;;;;5095914;28;20097;-82
2023/01/22 08:42:54;;;;;;;10.02;4.55;;;;;;;;;;5091158;28;20118;-82
2023/01/22 08:45:19;;;;;;;9.35;4.57;;;;;;;;;;5090598;28;20497;-82
2023/01/22 08:47:45;;;;;;;9.60;5.15;;;;;;;;;;5099148;28;20104;-81
2023/01/22 08:50:11;;;;;;;9.63;4.72;;;;;;;;;;5095628;28;20043;-82
2023/01/22 08:52:36;;;;;;;9.73;4.65;;;;;;;;;;5104900;28;20038;-81
2023/01/22 08:55:04;;;;;;;8.50;4.75;;;;;;;;;;5101501;28;20054;-81
2023/01/22 08:57:29;;;;;;;8.75;4.50;;;;;;;;;;5105738;28;20038;-82
2023/01/22 08:59:54;;;;;;;8.43;4.63;;;;;;;;;;5094571;28;20024;-82
2023/01/22 09:02:20;;;;;;;11.05;5.80;;;;;;;;;;5094395;28;20050;-82
2023/01/22 09:04:45;;;;;;;8.70;4.53;;;;;;;;;;5098629;28;20157;-82
2023/01/22 09:07:11;;;;;;;7.97;4.68;;;;;;;;;;5098018;28;20027;-82
2023/01/22 09:09:36;;;;;;;8.00;4.53;;;;;;;;;;5099674;28;20099;-82
2023/01/22 09:12:02;;;;;;;8.73;4.72;;;;;;;;;;5106928;27;20028;-81
2023/01/22 09:14:27;;;;;;;8.18;4.50;;;;;;;;;;5097883;28;20441;-82
2023/01/22 09:16:52;;;;;;;9.07;4.80;;;;;;;;;;5100563;28;20020;-82
2023/01/22 09:19:18;;;;;;;9.63;5.35;;;;;;;;;;5101513;28;20020;-82
2023/01/22 09:21:43;;;;;;;8.68;4.93;;;;;;;;;;5107078;28;20485;-82
2023/01/22 09:24:09;;;;;;;8.02;4.38;;;;;;;;;;5107136;28;20027;-82
2023/01/22 09:26:38;;;;;;;8.82;4.25;;;;;;;;;;5100590;28;20108;-81
2023/01/22 09:29:04;;;;;;;9.38;5.10;;;;;;;;;;5105924;28;20020;-82
2023/01/22 09:31:34;;;;;;;7.50;4.72;;;;;;;;;;5096635;27;20046;-82
2023/01/22 09:34:00;;;;;;;8.48;4.53;;;;;;;;;;5104504;28;20446;-82
2023/01/22 09:36:26;;;;;;;8.50;4.88;;;;;;;;;;5096304;28;20027;-82
2023/01/22 09:38:51;;;;;;;9.35;5.03;;;;;;;;;;5098465;28;20032;-81
2023/01/22 09:41:31;;;;;;;7.38;3.97;;;;;;;;;;5099549;28;21490;-82
2023/01/22 09:44:04;;;;;;;7.43;3.85;;;;;;;;;;5097794;28;20035;-82
2023/01/22 09:46:37;;;;;;;7.25;4.15;;;;;;;;;;5102075;28;20483;-82
2023/01/22 09:49:07;;;;;;;;;;;;;;;;;;5100466;28;20490;-81
2023/01/22 09:51:34;;;;;;;6.25;3.42;;;;;;;;;;5095335;28;19912;-81
2023/01/22 09:54:02;;;;;;;6.57;3.35;;;;;;;;;;5101659;28;20091;-81
2023/01/22 09:56:39;;;;;;;6.63;3.78;;;;;;;;;;5097201;28;20016;-82
2023/01/22 09:59:06;;;;;;;8.65;3.88;;;;;;;;;;5101831;28;20115;-81
2023/01/22 10:01:32;;;;;;;10.50;4.43;;;;;;;;;;5106115;28;20468;-82
2023/01/22 10:04:04;;;;;;;8.35;4.30;;;;;;;;;;5110504;28;20467;-82
2023/01/22 10:06:30;;;;;;;8.07;4.38;;;;;;;;;;5095689;27;20019;-82
2023/01/22 10:09:09;;;;;;;7.85;4.53;;;;;;;;;;5098724;28;20031;-82
2023/01/22 10:11:39;;;;;;;6.95;3.97;;;;;;;;;;5101773;27;20131;-81
2023/01/22 10:14:13;;;;;;;8.52;4.80;;;;;;;;;;5092716;28;20425;-81
2023/01/22 10:16:38;;;;;;;10.02;4.88;;;;;;;;;;5094902;28;20608;-81
2023/01/22 10:19:11;;;;;;;7.78;4.72;;;;;;;;;;5101615;28;20126;-81
2023/01/22 10:21:52;;;;;;;7.10;4.40;;;;;;;;;;5096707;27;20055;-82
2023/01/22 10:24:18;;;;;;;9.23;4.60;;;;;;;;;;5098634;28;20496;-81
2023/01/22 10:26:53;;;;;;;7.07;3.85;;;;;;;;;;5088928;28;20039;-81
2023/01/22 10:29:23;;;;;;;7.75;4.28;;;;;;;;;;5095638;28;20035;-81
2023/01/22 10:31:58;;;;;;;7.85;4.28;;;;;;;;;;5093849;28;20708;-81
2023/01/22 10:34:29;;;;;;;8.13;4.18;;;;;;;;;;5101519;28;20038;-81
2023/01/22 10:36:58;;;;;;;8.40;4.43;;;;;;;;;;5097933;28;20028;-81
2023/01/22 10:39:23;;;;;;;8.55;4.38;;;;;;;;;;5091355;28;20118;-82
2023/01/22 10:41:49;;;;;;;8.65;4.72;;;;;;;;;;5089250;28;20122;-81
2023/01/22 10:44:14;;;;;;;7.68;4.55;;;;;;;;;;5092503;28;20077;-81
2023/01/22 10:46:40;;;;;;;7.93;4.53;;;;;;;;;;5096031;28;20361;-81
2023/01/22 10:49:07;;;;;;;9.65;4.40;;;;;;;;;;5094970;28;20126;-81
2023/01/22 10:51:41;;;;;;;9.75;4.53;;;;;;;;;;5099622;28;20114;-81
2023/01/22 10:54:30;;;;;;;8.43;4.57;;;;;;;;;;5116647;27;20122;-81
2023/01/22 10:57:19;;;;;;;10.50;4.25;;;;;;;;;;5101513;28;20393;-81
2023/01/22 10:59:59;;;;;;;8.05;4.72;;;;;;;;;;5090514;28;20118;-82
2023/01/22 11:02:25;;;;;;;7.05;3.90;;;;;;;;;;5091700;28;20028;-81
2023/01/22 11:04:51;;;;;;;8.15;3.88;;;;;;;;;;5096619;28;20034;-82
2023/01/22 11:07:23;;;;;;;7.50;4.22;;;;;;;;;;5093337;28;20028;-81
2023/01/22 11:10:10;;;;;;;8.13;4.32;;;;;;;;;;5093469;28;20477;-81
2023/01/22 11:12:44;;;;;;;7.45;4.25;;;;;;;;;;5093313;28;20422;-81
2023/01/22 11:15:09;;;;;;;7.70;4.35;;;;;;;;;;5092092;28;20111;-81
2023/01/22 11:17:44;;;;;;;7.53;4.00;;;;;;;;;;5091666;28;20122;-81
2023/01/22 11:20:23;;;;;;;8.95;4.25;;;;;;;;;;5097542;28;20043;-81
2023/01/22 11:23:15;;;;;;;7.20;4.18;;;;;;;;;;5089733;28;20394;-82
2023/01/22 11:25:44;;;;;;;6.95;4.10;;;;;;;;;;5096154;28;20043;-81
2023/01/22 11:28:18;;;;;;;6.97;4.30;;;;;;;;;;5095416;28;20046;-81
2023/01/22 11:30:51;;;;;;;7.22;4.05;;;;;;;;;;5092265;28;20028;-81
2023/01/22 11:34:08;;;;;;;7.80;4.75;;;;;;;;;;5097133;28;20028;-81
2023/01/22 11:36:43;;;;;;;10.68;4.45;;;;;;;;;;5061734;28;20074;-82
2023/01/22 11:39:14;;;;;;;7.25;4.25;;;;;;;;;;5091808;28;20101;-82
2023/01/22 11:42:21;;;;;;;6.78;4.00;;;;;;;;;;5098422;28;20024;-81
2023/01/22 11:45:18;;;;;;;7.68;4.50;;;;;;;;;;5060211;28;20396;-81
2023/01/22 11:47:43;;;;;;;7.10;4.15;;;;;;;;;;5095759;28;20023;-81
2023/01/22 11:50:35;;;;;;;7.43;4.45;;;;;;;;;;5091272;28;20046;-81
2023/01/22 11:53:27;;;;;;;7.40;4.38;;;;;;;;;;5088651;28;20169;-81
2023/01/22 11:56:13;;;;;;;7.45;4.32;;;;;;;;;;5093021;28;20067;-81
2023/01/22 11:58:57;;;;;;;7.82;4.18;;;;;;;;;;5097441;28;20116;-81
2023/01/22 12:01:22;;;;;;;;;;;;;;;;;;5103610;28;20027;-81
2023/01/22 12:04:00;;;;;;;6.22;3.70;;;;;;;;;;5093155;28;19912;-81
2023/01/22 12:06:58;;;;;;;7.65;3.88;;;;;;;;;;5096316;28;20039;-81
2023/01/22 12:09:36;;;;;;;6.88;4.35;;;;;;;;;;5115742;28;20027;-81
2023/01/22 12:12:07;;;;;;;9.25;4.72;;;;;;;;;;5098294;28;20058;-81
2023/01/22 12:14:40;;;;;;;8.77;5.13;;;;;;;;;;5094588;28;20509;-81
2023/01/22 12:17:19;;;;;;;8.35;4.65;;;;;;;;;;5094385;28;20066;-81
2023/01/22 12:20:19;;;;;;;7.55;4.45;;;;;;;;;;5095609;28;20391;-81
2023/01/22 12:23:05;;;;;;;7.82;4.32;;;;;;;;;;5103107;28;20024;-81
2023/01/22 12:26:08;;;;;;;8.85;4.53;;;;;;;;;;5099611;28;20016;-81
2023/01/22 12:28:59;;;;;;;7.68;4.25;;;;;;;;;;5095594;28;20468;-81
2023/01/22 12:31:27;;;;;;;7.78;4.30;;;;;;;;;;5102380;28;20031;-81
2023/01/22 12:33:52;;;;;;;7.45;4.32;;;;;;;;;;5100603;28;20407;-81
2023/01/22 12:36:21;;;;;;;9.50;5.10;;;;;;;;;;5098245;27;20026;-81
2023/01/22 12:39:02;;;;;;;8.45;4.70;;;;;;;;;;5105048;28;20074;-81
2023/01/22 12:41:27;;;;;;;8.15;4.20;;;;;;;;;;5095113;28;20480;-81
2023/01/22 12:44:05;;;;;;;9.10;5.10;;;;;;;;;;5105187;28;20073;-81
2023/01/22 12:47:03;;;;;;;9.45;4.55;;;;;;;;;;5096983;28;20472;-81
2023/01/22 12:49:29;;;;;;;8.10;4.28;;;;;;;;;;5096849;28;20376;-80
2023/01/22 12:51:58;;;;;;;9.35;5.30;;;;;;;;;;5092654;28;20052;-80
2023/01/22 12:54:31;;;;;;;10.02;4.28;;;;;;;;;;5093281;28;20490;-81
2023/01/22 12:57:21;;;;;;;7.95;4.47;;;;;;;;;;5084697;27;20752;-81
2023/01/22 12:59:48;;;;;;;8.38;4.38;;;;;;;;;;5082357;28;20031;-81
2023/01/22 13:02:25;;;;;;;8.15;4.57;;;;;;;;;;5093467;28;20074;-81
2023/01/22 13:04:54;;;;;;;7.80;4.45;;;;;;;;;;5095920;28;20164;-81
2023/01/22 13:07:34;;;;;;;7.60;4.40;;;;;;;;;;5111622;27;20031;-81
2023/01/22 13:10:02;;;;;;;9.27;5.13;;;;;;;;;;5096565;28;20032;-81
2023/01/22 13:12:35;;;;;;;11.13;5.07;;;;;;;;;;5097427;27;20031;-81
2023/01/22 13:15:05;;;;;;;9.70;4.70;;;;;;;;;;5095785;28;20115;-80
2023/01/22 13:17:30;;;;;;;11.75;5.00;;;;;;;;;;5094921;28;20032;-81
2023/01/22 13:19:57;;;;;;;8.07;4.53;;;;;;;;;;5097707;28;20077;-80
2023/01/22 13:22:24;;;;;;;8.05;5.10;;;;;;;;;;5095082;28;20369;-80
2023/01/22 13:24:52;;;;;;;9.15;4.90;;;;;;;;;;5094494;28;20045;-81
2023/01/22 13:27:24;;;;;;;7.93;4.75;;;;;;;;;;5094468;28;20054;-80
2023/01/22 13:29:49;;;;;;;8.23;4.38;;;;;;;;;;5089778;28;20388;-81
2023/01/22 13:32:21;;;;;;;9.43;4.63;;;;;;;;;;5090968;28;20031;-81
2023/01/22 13:34:47;;;;;;;9.30;5.05;;;;;;;;;;5090356;28;20051;-82
2023/01/22 13:37:21;;;;;;;8.15;4.82;;;;;;;;;;5094647;28;20055;-80
2023/01/22 13:39:46;;;;;;;11.05;5.18;;;;;;;;;;5096550;28;20032;-81
2023/01/22 13:42:12;;;;;;;9.88;5.75;;;;;;;;;;5091034;28;20032;-80
2023/01/22 13:44:40;;;;;;;9.27;4.82;;;;;;;;;;5089916;28;20086;-81
2023/01/22 13:47:06;;;;;;;10.38;5.07;;;;;;;;;;5092101;28;20063;-80
2023/01/22 13:49:40;;;;;;;9.75;5.30;;;;;;;;;;5093134;28;20048;-80
2023/01/22 13:52:10;;;;;;;11.00;5.20;;;;;;;;;;5094628;28;20028;-81
2023/01/22 13:54:41;;;;;;;7.30;4.22;;;;;;;;;;5093442;28;20122;-80
2023/01/22 13:57:11;;;;;;;8.38;4.57;;;;;;;;;;5094130;28;20085;-81
2023/01/22 13:59:37;;;;;;;10.68;4.93;;;;;;;;;;5093320;28;20110;-81
2023/01/22 14:02:17;;;;;;;10.60;5.18;;;;;;;;;;5092299;28;20151;-80
2023/01/22 14:04:43;;;;;;;8.55;5.15;;;;;;;;;;5091174;28;20024;-81
2023/01/22 14:07:16;;;;;;;9.75;5.00;;;;;;;;;;5093113;28;20028;-80
2023/01/22 14:09:42;;;;;;;9.10;4.53;;;;;;;;;;5093015;28;20081;-81
2023/01/22 14:12:14;;;;;;;9.82;5.40;;;;;;;;;;5101777;27;20028;-81
2023/01/22 14:14:40;;;;;;;8.30;4.57;;;;;;;;;;5097626;28;20119;-81
2023/01/22 14:17:06;;;;;;;10.82;5.30;;;;;;;;;;5096570;28;20031;-81
2023/01/22 14:19:32;;;;;;;9.02;5.57;;;;;;;;;;5092168;28;20479;-80
2023/01/22 14:21:57;;;;;;;9.25;5.57;;;;;;;;;;5092260;28;20043;-80
2023/01/22 14:24:24;;;;;;;7.60;4.55;;;;;;;;;;5094345;28;20506;-81
2023/01/22 14:26:49;;;;;;;11.68;5.75;;;;;;;;;;5093654;28;20071;-80
2023/01/22 14:29:15;;;;;;;8.98;5.15;;;;;;;;;;5094614;28;20038;-80
2023/01/22 14:31:40;;;;;;;11.30;5.28;;;;;;;;;;5094569;28;20061;-80
2023/01/22 14:34:09;;;;;;;9.20;4.55;;;;;;;;;;5086935;28;20079;-81
2023/01/22 14:36:35;;;;;;;8.05;4.63;;;;;;;;;;5089772;28;20042;-80
2023/01/22 14:39:00;;;;;;;10.57;5.32;;;;;;;;;;5097918;27;20039;-81
2023/01/22 14:41:26;;;;;;;9.48;5.20;;;;;;;;;;5095520;28;20028;-81
2023/01/22 14:43:51;;;;;;;9.40;5.28;;;;;;;;;;5091991;28;20462;-81
2023/01/22 14:46:17;;;;;;;9.88;5.63;;;;;;;;;;5099674;28;20039;-81
2023/01/22 14:48:42;;;;;;;9.50;4.82;;;;;;;;;;5094102;28;20028;-81
2023/01/22 14:51:09;;;;;;;8.18;4.85;;;;;;;;;;5098704;28;20020;-80
2023/01/22 14:53:35;;;;;;;10.18;5.72;;;;;;;;;;5096957;28;20032;-81
2023/01/22 14:56:00;;;;;;;9.60;4.93;;;;;;;;;;5100932;28;20015;-80
2023/01/22 14:58:26;;;;;;;9.73;5.60;;;;;;;;;;5100002;28;20031;-80